sensor_id;sensor_type;location;lat;lon;timestamp;P1;durP1;ratioP1;P2;durP2;ratioP2
76935;SDS011;65881;52.438;16.744;2023-06-04T00:00:36;5.80;;;3.97;;
76935;SDS011;65881;52.438;16.744;2023-06-04T00:03:01;7.18;;;3.22;;
76935;SDS011;65881;52.438;16.744;2023-06-04T00:05:27;4.53;;;3.10;;
76935;SDS011;65881;52.438;16.744;2023-06-04T00:07:53;7.97;;;3.50;;
76935;SDS011;65881;52.438;16.744;2023-06-04T00:10:18;6.78;;;3.70;;
76935;SDS011;65881;52.438;16.744;2023-06-04T00:12:44;5.38;;;3.42;;
76935;SDS011;65881;52.438;16.744;2023-06-04T00:15:10;6.68;;;3.08;;
76935;SDS011;65881;52.438;16.744;2023-06-04T00:17:37;6.15;;;3.55;;
76935;SDS011;65881;52.438;16.744;2023-06-04T00:20:03;7.38;;;3.55;;
76935;SDS011;65881;52.438;16.744;2023-06-04T00:22:29;9.82;;;3.60;;
76935;SDS011;65881;52.438;16.744;2023-06-04T00:24:54;5.32;;;4.55;;
76935;SDS011;65881;52.438;16.744;2023-06-04T00:27:20;5.53;;;3.58;;
76935;SDS011;65881;52.438;16.744;2023-06-04T00:29:46;5.25;;;4.10;;
76935;SDS011;65881;52.438;16.744;2023-06-04T00:32:11;10.68;;;4.30;;
76935;SDS011;65881;52.438;16.744;2023-06-04T00:34:37;8.52;;;3.78;;
76935;SDS011;65881;52.438;16.744;2023-06-04T00:37:02;6.57;;;3.95;;
76935;SDS011;65881;52.438;16.744;2023-06-04T00:39:28;8.77;;;4.20;;
76935;SDS011;65881;52.438;16.744;2023-06-04T00:41:55;6.60;;;4.20;;
76935;SDS011;65881;52.438;16.744;2023-06-04T00:44:20;5.30;;;4.07;;
76935;SDS011;65881;52.438;16.744;2023-06-04T00:46:50;9.90;;;4.05;;
76935;SDS011;65881;52.438;16.744;2023-06-04T00:49:16;6.22;;;3.58;;
76935;SDS011;65881;52.438;16.744;2023-06-04T00:51:41;8.82;;;4.28;;
76935;SDS011;65881;52.438;16.744;2023-06-04T00:54:07;11.15;;;3.95;;
76935;SDS011;65881;52.438;16.744;2023-06-04T00:56:36;8.48;;;4.28;;
76935;SDS011;65881;52.438;16.744;2023-06-04T00:59:04;7.25;;;4.22;;
76935;SDS011;65881;52.438;16.744;2023-06-04T01:04:21;8.18;;;4.00;;
76935;SDS011;65881;52.438;16.744;2023-06-04T01:07:07;6.97;;;4.13;;
76935;SDS011;65881;52.438;16.744;2023-06-04T01:09:35;5.78;;;3.63;;
76935;SDS011;65881;52.438;16.744;2023-06-04T01:12:05;7.05;;;4.25;;
76935;SDS011;65881;52.438;16.744;2023-06-04T01:14:32;7.93;;;4.13;;
76935;SDS011;65881;52.438;16.744;2023-06-04T01:17:01;8.95;;;3.97;;
76935;SDS011;65881;52.438;16.744;2023-06-04T01:22:02;5.50;;;3.50;;
76935;SDS011;65881;52.438;16.744;2023-06-04T01:24:35;6.47;;;4.30;;
76935;SDS011;65881;52.438;16.744;2023-06-04T01:27:05;5.30;;;3.70;;
76935;SDS011;65881;52.438;16.744;2023-06-04T01:29:32;5.15;;;3.42;;
76935;SDS011;65881;52.438;16.744;2023-06-04T01:32:01;7.78;;;4.30;;
76935;SDS011;65881;52.438;16.744;2023-06-04T01:34:27;6.20;;;3.60;;
76935;SDS011;65881;52.438;16.744;2023-06-04T01:36:53;5.32;;;3.85;;
76935;SDS011;65881;52.438;16.744;2023-06-04T01:39:18;5.55;;;3.80;;
76935;SDS011;65881;52.438;16.744;2023-06-04T01:41:48;7.13;;;4.50;;
76935;SDS011;65881;52.438;16.744;2023-06-04T01:44:14;5.93;;;3.58;;
76935;SDS011;65881;52.438;16.744;2023-06-04T01:46:40;6.47;;;4.47;;
76935;SDS011;65881;52.438;16.744;2023-06-04T01:49:06;6.00;;;3.67;;
76935;SDS011;65881;52.438;16.744;2023-06-04T01:51:31;5.22;;;3.85;;
76935;SDS011;65881;52.438;16.744;2023-06-04T01:53:57;4.47;;;3.63;;
76935;SDS011;65881;52.438;16.744;2023-06-04T01:56:23;6.50;;;3.80;;
76935;SDS011;65881;52.438;16.744;2023-06-04T01:58:50;7.43;;;3.60;;
76935;SDS011;65881;52.438;16.744;2023-06-04T02:01:17;8.18;;;3.97;;
76935;SDS011;65881;52.438;16.744;2023-06-04T02:03:42;4.72;;;3.47;;
76935;SDS011;65881;52.438;16.744;2023-06-04T02:06:08;7.28;;;5.43;;
76935;SDS011;65881;52.438;16.744;2023-06-04T02:08:34;6.68;;;3.72;;
76935;SDS011;65881;52.438;16.744;2023-06-04T02:11:00;7.22;;;3.78;;
76935;SDS011;65881;52.438;16.744;2023-06-04T02:13:26;9.13;;;4.47;;
76935;SDS011;65881;52.438;16.744;2023-06-04T02:15:51;8.18;;;4.07;;
76935;SDS011;65881;52.438;16.744;2023-06-04T02:18:18;5.10;;;3.75;;
76935;SDS011;65881;52.438;16.744;2023-06-04T02:20:46;6.82;;;3.83;;
76935;SDS011;65881;52.438;16.744;2023-06-04T02:23:14;5.22;;;3.90;;
76935;SDS011;65881;52.438;16.744;2023-06-04T02:25:40;8.30;;;4.80;;
76935;SDS011;65881;52.438;16.744;2023-06-04T02:28:07;8.05;;;4.65;;
76935;SDS011;65881;52.438;16.744;2023-06-04T02:30:33;10.75;;;4.93;;
76935;SDS011;65881;52.438;16.744;2023-06-04T02:32:59;8.57;;;5.28;;
76935;SDS011;65881;52.438;16.744;2023-06-04T02:35:26;7.07;;;4.30;;
76935;SDS011;65881;52.438;16.744;2023-06-04T02:37:53;8.85;;;4.78;;
76935;SDS011;65881;52.438;16.744;2023-06-04T02:40:19;6.93;;;4.03;;
76935;SDS011;65881;52.438;16.744;2023-06-04T02:42:45;7.22;;;4.03;;
76935;SDS011;65881;52.438;16.744;2023-06-04T02:45:10;11.32;;;4.18;;
76935;SDS011;65881;52.438;16.744;2023-06-04T02:47:36;5.85;;;4.20;;
76935;SDS011;65881;52.438;16.744;2023-06-04T02:50:02;7.90;;;4.50;;
76935;SDS011;65881;52.438;16.744;2023-06-04T02:52:28;8.30;;;4.55;;
76935;SDS011;65881;52.438;16.744;2023-06-04T02:54:55;7.45;;;4.75;;
76935;SDS011;65881;52.438;16.744;2023-06-04T02:57:22;6.90;;;4.22;;
76935;SDS011;65881;52.438;16.744;2023-06-04T02:59:48;7.70;;;4.22;;
76935;SDS011;65881;52.438;16.744;2023-06-04T03:02:13;11.52;;;4.50;;
76935;SDS011;65881;52.438;16.744;2023-06-04T03:04:40;8.30;;;4.22;;
76935;SDS011;65881;52.438;16.744;2023-06-04T03:07:07;7.68;;;4.25;;
76935;SDS011;65881;52.438;16.744;2023-06-04T03:09:36;6.75;;;4.47;;
76935;SDS011;65881;52.438;16.744;2023-06-04T03:12:02;4.60;;;3.65;;
76935;SDS011;65881;52.438;16.744;2023-06-04T03:14:28;5.75;;;3.92;;
76935;SDS011;65881;52.438;16.744;2023-06-04T03:17:00;8.70;;;4.45;;
76935;SDS011;65881;52.438;16.744;2023-06-04T03:19:33;7.68;;;4.25;;
76935;SDS011;65881;52.438;16.744;2023-06-04T03:24:32;10.02;;;3.90;;
76935;SDS011;65881;52.438;16.744;2023-06-04T03:27:02;7.57;;;4.40;;
76935;SDS011;65881;52.438;16.744;2023-06-04T03:29:29;7.25;;;5.13;;
76935;SDS011;65881;52.438;16.744;2023-06-04T03:31:56;9.32;;;4.93;;
76935;SDS011;65881;52.438;16.744;2023-06-04T03:34:21;7.65;;;4.30;;
76935;SDS011;65881;52.438;16.744;2023-06-04T03:36:50;7.38;;;3.97;;
76935;SDS011;65881;52.438;16.744;2023-06-04T03:39:16;6.65;;;4.40;;
76935;SDS011;65881;52.438;16.744;2023-06-04T03:41:42;6.65;;;3.58;;
76935;SDS011;65881;52.438;16.744;2023-06-04T03:44:08;6.47;;;4.32;;
76935;SDS011;65881;52.438;16.744;2023-06-04T03:46:34;8.38;;;3.92;;
76935;SDS011;65881;52.438;16.744;2023-06-04T03:49:00;6.15;;;4.40;;
76935;SDS011;65881;52.438;16.744;2023-06-04T03:51:27;6.70;;;3.97;;
76935;SDS011;65881;52.438;16.744;2023-06-04T03:53:52;8.82;;;4.68;;
76935;SDS011;65881;52.438;16.744;2023-06-04T03:56:19;6.28;;;4.35;;
76935;SDS011;65881;52.438;16.744;2023-06-04T03:58:46;6.57;;;4.43;;
76935;SDS011;65881;52.438;16.744;2023-06-04T04:01:12;7.45;;;5.10;;
76935;SDS011;65881;52.438;16.744;2023-06-04T04:03:38;7.45;;;4.90;;
76935;SDS011;65881;52.438;16.744;2023-06-04T04:06:03;9.07;;;4.95;;
76935;SDS011;65881;52.438;16.744;2023-06-04T04:08:29;5.80;;;4.28;;
76935;SDS011;65881;52.438;16.744;2023-06-04T04:10:59;10.57;;;4.60;;
76935;SDS011;65881;52.438;16.744;2023-06-04T04:13:25;8.02;;;4.65;;
76935;SDS011;65881;52.438;16.744;2023-06-04T04:15:51;9.20;;;4.90;;
76935;SDS011;65881;52.438;16.744;2023-06-04T04:18:21;5.75;;;4.78;;
76935;SDS011;65881;52.438;16.744;2023-06-04T04:20:47;8.05;;;4.47;;
76935;SDS011;65881;52.438;16.744;2023-06-04T04:23:12;6.43;;;4.70;;
76935;SDS011;65881;52.438;16.744;2023-06-04T04:25:38;7.10;;;4.85;;
76935;SDS011;65881;52.438;16.744;2023-06-04T04:28:04;8.52;;;5.07;;
76935;SDS011;65881;52.438;16.744;2023-06-04T04:30:33;7.68;;;4.15;;
76935;SDS011;65881;52.438;16.744;2023-06-04T04:33:00;6.72;;;4.45;;
76935;SDS011;65881;52.438;16.744;2023-06-04T04:35:32;8.13;;;4.70;;
76935;SDS011;65881;52.438;16.744;2023-06-04T04:38:01;11.35;;;4.90;;
76935;SDS011;65881;52.438;16.744;2023-06-04T04:40:30;7.80;;;4.25;;
76935;SDS011;65881;52.438;16.744;2023-06-04T04:42:56;5.40;;;4.10;;
76935;SDS011;65881;52.438;16.744;2023-06-04T04:45:23;8.23;;;3.75;;
76935;SDS011;65881;52.438;16.744;2023-06-04T04:47:49;7.20;;;4.43;;
76935;SDS011;65881;52.438;16.744;2023-06-04T04:50:16;8.73;;;4.22;;
76935;SDS011;65881;52.438;16.744;2023-06-04T04:52:41;6.25;;;3.72;;
76935;SDS011;65881;52.438;16.744;2023-06-04T04:55:08;6.93;;;3.83;;
76935;SDS011;65881;52.438;16.744;2023-06-04T04:57:34;7.70;;;4.55;;
76935;SDS011;65881;52.438;16.744;2023-06-04T05:00:00;4.63;;;3.40;;
76935;SDS011;65881;52.438;16.744;2023-06-04T05:02:26;11.20;;;5.18;;
76935;SDS011;65881;52.438;16.744;2023-06-04T05:04:52;5.95;;;3.83;;
76935;SDS011;65881;52.438;16.744;2023-06-04T05:07:18;4.97;;;3.28;;
76935;SDS011;65881;52.438;16.744;2023-06-04T05:09:46;7.63;;;4.15;;
76935;SDS011;65881;52.438;16.744;2023-06-04T05:12:12;4.70;;;3.53;;
76935;SDS011;65881;52.438;16.744;2023-06-04T05:14:37;7.40;;;3.25;;
76935;SDS011;65881;52.438;16.744;2023-06-04T05:17:03;7.03;;;3.75;;
76935;SDS011;65881;52.438;16.744;2023-06-04T05:19:29;7.07;;;4.10;;
76935;SDS011;65881;52.438;16.744;2023-06-04T05:21:58;8.85;;;3.63;;
76935;SDS011;65881;52.438;16.744;2023-06-04T05:24:25;4.15;;;2.78;;
76935;SDS011;65881;52.438;16.744;2023-06-04T05:26:51;5.60;;;3.15;;
76935;SDS011;65881;52.438;16.744;2023-06-04T05:29:16;5.22;;;3.45;;
76935;SDS011;65881;52.438;16.744;2023-06-04T05:31:42;4.65;;;2.53;;
76935;SDS011;65881;52.438;16.744;2023-06-04T05:34:08;6.65;;;3.80;;
76935;SDS011;65881;52.438;16.744;2023-06-04T05:36:33;6.22;;;3.38;;
76935;SDS011;65881;52.438;16.744;2023-06-04T05:38:59;6.20;;;3.90;;
76935;SDS011;65881;52.438;16.744;2023-06-04T05:41:27;5.25;;;3.42;;
76935;SDS011;65881;52.438;16.744;2023-06-04T05:46:46;5.22;;;3.42;;
76935;SDS011;65881;52.438;16.744;2023-06-04T05:49:12;5.75;;;3.55;;
76935;SDS011;65881;52.438;16.744;2023-06-04T05:51:38;6.93;;;3.75;;
76935;SDS011;65881;52.438;16.744;2023-06-04T05:54:03;8.57;;;3.50;;
76935;SDS011;65881;52.438;16.744;2023-06-04T05:56:29;6.28;;;3.78;;
76935;SDS011;65881;52.438;16.744;2023-06-04T05:58:55;6.93;;;3.30;;
76935;SDS011;65881;52.438;16.744;2023-06-04T06:01:21;7.70;;;3.70;;
76935;SDS011;65881;52.438;16.744;2023-06-04T06:03:46;4.65;;;3.00;;
76935;SDS011;65881;52.438;16.744;2023-06-04T06:06:12;5.88;;;3.17;;
76935;SDS011;65881;52.438;16.744;2023-06-04T06:08:38;5.10;;;3.15;;
76935;SDS011;65881;52.438;16.744;2023-06-04T06:11:03;3.70;;;2.53;;
76935;SDS011;65881;52.438;16.744;2023-06-04T06:13:30;4.88;;;2.83;;
76935;SDS011;65881;52.438;16.744;2023-06-04T06:15:56;4.13;;;3.10;;
76935;SDS011;65881;52.438;16.744;2023-06-04T06:18:22;7.07;;;3.05;;
76935;SDS011;65881;52.438;16.744;2023-06-04T06:20:48;5.10;;;3.00;;
76935;SDS011;65881;52.438;16.744;2023-06-04T06:23:13;4.47;;;2.80;;
76935;SDS011;65881;52.438;16.744;2023-06-04T06:25:40;3.92;;;2.75;;
76935;SDS011;65881;52.438;16.744;2023-06-04T06:28:06;4.60;;;2.85;;
76935;SDS011;65881;52.438;16.744;2023-06-04T06:30:32;4.20;;;2.70;;
76935;SDS011;65881;52.438;16.744;2023-06-04T06:32:58;5.43;;;3.25;;
76935;SDS011;65881;52.438;16.744;2023-06-04T06:35:23;3.92;;;2.42;;
76935;SDS011;65881;52.438;16.744;2023-06-04T06:40:23;4.68;;;2.95;;
76935;SDS011;65881;52.438;16.744;2023-06-04T06:42:49;4.57;;;2.60;;
76935;SDS011;65881;52.438;16.744;2023-06-04T06:45:16;3.22;;;2.17;;
76935;SDS011;65881;52.438;16.744;2023-06-04T06:47:44;9.20;;;2.92;;
76935;SDS011;65881;52.438;16.744;2023-06-04T06:50:10;6.50;;;2.95;;
76935;SDS011;65881;52.438;16.744;2023-06-04T06:52:36;3.75;;;2.58;;
76935;SDS011;65881;52.438;16.744;2023-06-04T06:55:03;3.30;;;1.90;;
76935;SDS011;65881;52.438;16.744;2023-06-04T06:57:29;3.33;;;2.53;;
76935;SDS011;65881;52.438;16.744;2023-06-04T06:59:55;7.13;;;2.70;;
76935;SDS011;65881;52.438;16.744;2023-06-04T07:02:21;5.80;;;2.35;;
76935;SDS011;65881;52.438;16.744;2023-06-04T07:04:47;4.38;;;2.70;;
76935;SDS011;65881;52.438;16.744;2023-06-04T07:07:13;5.05;;;2.70;;
76935;SDS011;65881;52.438;16.744;2023-06-04T07:09:39;4.68;;;2.75;;
76935;SDS011;65881;52.438;16.744;2023-06-04T07:12:05;2.83;;;2.08;;
76935;SDS011;65881;52.438;16.744;2023-06-04T07:14:31;4.95;;;2.30;;
76935;SDS011;65881;52.438;16.744;2023-06-04T07:16:57;6.07;;;2.58;;
76935;SDS011;65881;52.438;16.744;2023-06-04T07:19:23;2.63;;;2.03;;
76935;SDS011;65881;52.438;16.744;2023-06-04T07:21:49;3.53;;;2.20;;
76935;SDS011;65881;52.438;16.744;2023-06-04T07:24:17;5.18;;;3.45;;
76935;SDS011;65881;52.438;16.744;2023-06-04T07:26:43;4.57;;;1.98;;
76935;SDS011;65881;52.438;16.744;2023-06-04T07:29:09;3.47;;;2.42;;
76935;SDS011;65881;52.438;16.744;2023-06-04T07:31:34;7.53;;;2.50;;
76935;SDS011;65881;52.438;16.744;2023-06-04T07:34:00;3.00;;;2.03;;
76935;SDS011;65881;52.438;16.744;2023-06-04T07:36:25;3.25;;;2.30;;
76935;SDS011;65881;52.438;16.744;2023-06-04T07:38:51;3.38;;;2.20;;
76935;SDS011;65881;52.438;16.744;2023-06-04T07:41:17;4.72;;;2.28;;
76935;SDS011;65881;52.438;16.744;2023-06-04T07:43:42;4.97;;;2.15;;
76935;SDS011;65881;52.438;16.744;2023-06-04T07:46:08;7.63;;;2.30;;
76935;SDS011;65881;52.438;16.744;2023-06-04T07:48:35;4.55;;;2.33;;
76935;SDS011;65881;52.438;16.744;2023-06-04T07:51:01;3.65;;;2.47;;
76935;SDS011;65881;52.438;16.744;2023-06-04T07:53:28;3.13;;;2.10;;
76935;SDS011;65881;52.438;16.744;2023-06-04T07:55:55;3.47;;;2.58;;
76935;SDS011;65881;52.438;16.744;2023-06-04T07:58:21;4.63;;;1.92;;
76935;SDS011;65881;52.438;16.744;2023-06-04T08:00:48;3.85;;;2.97;;
76935;SDS011;65881;52.438;16.744;2023-06-04T08:03:13;2.03;;;1.60;;
76935;SDS011;65881;52.438;16.744;2023-06-04T08:05:42;3.25;;;2.08;;
76935;SDS011;65881;52.438;16.744;2023-06-04T08:08:08;3.58;;;2.30;;
76935;SDS011;65881;52.438;16.744;2023-06-04T08:10:34;4.30;;;2.00;;
76935;SDS011;65881;52.438;16.744;2023-06-04T08:13:00;4.00;;;1.80;;
76935;SDS011;65881;52.438;16.744;2023-06-04T08:15:25;2.90;;;1.83;;
76935;SDS011;65881;52.438;16.744;2023-06-04T08:17:51;3.20;;;2.15;;
76935;SDS011;65881;52.438;16.744;2023-06-04T08:20:17;3.25;;;1.77;;
76935;SDS011;65881;52.438;16.744;2023-06-04T08:22:42;2.42;;;1.70;;
76935;SDS011;65881;52.438;16.744;2023-06-04T08:25:08;3.60;;;1.98;;
76935;SDS011;65881;52.438;16.744;2023-06-04T08:27:34;3.97;;;2.10;;
76935;SDS011;65881;52.438;16.744;2023-06-04T08:30:00;6.35;;;2.38;;
76935;SDS011;65881;52.438;16.744;2023-06-04T08:32:27;3.88;;;2.00;;
76935;SDS011;65881;52.438;16.744;2023-06-04T08:34:52;3.15;;;2.05;;
76935;SDS011;65881;52.438;16.744;2023-06-04T08:37:19;4.07;;;2.28;;
76935;SDS011;65881;52.438;16.744;2023-06-04T08:39:45;2.65;;;1.60;;
76935;SDS011;65881;52.438;16.744;2023-06-04T08:42:34;3.67;;;2.20;;
76935;SDS011;65881;52.438;16.744;2023-06-04T08:45:03;3.55;;;1.92;;
76935;SDS011;65881;52.438;16.744;2023-06-04T08:47:29;2.22;;;1.80;;
76935;SDS011;65881;52.438;16.744;2023-06-04T08:50:01;3.97;;;1.70;;
76935;SDS011;65881;52.438;16.744;2023-06-04T08:52:29;2.60;;;2.00;;
76935;SDS011;65881;52.438;16.744;2023-06-04T08:54:55;6.03;;;2.00;;
76935;SDS011;65881;52.438;16.744;2023-06-04T08:57:21;1.90;;;1.52;;
76935;SDS011;65881;52.438;16.744;2023-06-04T08:59:47;2.65;;;1.85;;
76935;SDS011;65881;52.438;16.744;2023-06-04T09:02:15;4.10;;;2.40;;
76935;SDS011;65881;52.438;16.744;2023-06-04T09:04:41;3.53;;;1.90;;
76935;SDS011;65881;52.438;16.744;2023-06-04T09:07:08;4.15;;;2.30;;
76935;SDS011;65881;52.438;16.744;2023-06-04T09:09:39;2.38;;;1.85;;
76935;SDS011;65881;52.438;16.744;2023-06-04T09:12:11;4.93;;;2.13;;
76935;SDS011;65881;52.438;16.744;2023-06-04T09:14:47;2.72;;;2.10;;
76935;SDS011;65881;52.438;16.744;2023-06-04T09:17:22;3.83;;;2.15;;
76935;SDS011;65881;52.438;16.744;2023-06-04T09:19:49;3.30;;;1.80;;
76935;SDS011;65881;52.438;16.744;2023-06-04T09:22:15;4.00;;;1.70;;
76935;SDS011;65881;52.438;16.744;2023-06-04T09:24:43;2.75;;;1.73;;
76935;SDS011;65881;52.438;16.744;2023-06-04T09:27:18;2.40;;;1.85;;
76935;SDS011;65881;52.438;16.744;2023-06-04T09:32:29;2.17;;;1.67;;
76935;SDS011;65881;52.438;16.744;2023-06-04T09:34:56;2.28;;;1.67;;
76935;SDS011;65881;52.438;16.744;2023-06-04T09:37:37;2.42;;;1.73;;
76935;SDS011;65881;52.438;16.744;2023-06-04T09:40:02;2.92;;;1.92;;
76935;SDS011;65881;52.438;16.744;2023-06-04T09:42:30;3.30;;;1.90;;
76935;SDS011;65881;52.438;16.744;2023-06-04T09:45:06;2.20;;;1.52;;
76935;SDS011;65881;52.438;16.744;2023-06-04T09:47:39;2.65;;;1.95;;
76935;SDS011;65881;52.438;16.744;2023-06-04T09:50:10;3.13;;;2.38;;
76935;SDS011;65881;52.438;16.744;2023-06-04T09:52:36;3.17;;;1.98;;
76935;SDS011;65881;52.438;16.744;2023-06-04T09:55:03;6.90;;;2.00;;
76935;SDS011;65881;52.438;16.744;2023-06-04T09:57:29;2.95;;;1.90;;
76935;SDS011;65881;52.438;16.744;2023-06-04T09:59:57;3.72;;;1.83;;
76935;SDS011;65881;52.438;16.744;2023-06-04T10:05:18;6.60;;;2.10;;
76935;SDS011;65881;52.438;16.744;2023-06-04T10:07:47;4.82;;;2.55;;
76935;SDS011;65881;52.438;16.744;2023-06-04T10:10:16;4.38;;;1.75;;
76935;SDS011;65881;52.438;16.744;2023-06-04T10:12:45;2.22;;;1.52;;
76935;SDS011;65881;52.438;16.744;2023-06-04T10:17:59;4.75;;;2.58;;
76935;SDS011;65881;52.438;16.744;2023-06-04T10:20:26;6.30;;;2.15;;
76935;SDS011;65881;52.438;16.744;2023-06-04T10:22:53;3.00;;;2.00;;
76935;SDS011;65881;52.438;16.744;2023-06-04T10:27:50;4.30;;;1.80;;
76935;SDS011;65881;52.438;16.744;2023-06-04T10:30:24;2.80;;;1.95;;
76935;SDS011;65881;52.438;16.744;2023-06-04T10:33:02;5.88;;;1.90;;
76935;SDS011;65881;52.438;16.744;2023-06-04T10:35:35;3.13;;;1.77;;
76935;SDS011;65881;52.438;16.744;2023-06-04T10:38:08;2.85;;;1.73;;
76935;SDS011;65881;52.438;16.744;2023-06-04T10:40:35;2.53;;;1.80;;
76935;SDS011;65881;52.438;16.744;2023-06-04T10:43:05;5.90;;;1.63;;
76935;SDS011;65881;52.438;16.744;2023-06-04T10:45:40;4.15;;;1.73;;
76935;SDS011;65881;52.438;16.744;2023-06-04T10:48:10;2.92;;;1.73;;
76935;SDS011;65881;52.438;16.744;2023-06-04T10:50:48;6.57;;;2.05;;
76935;SDS011;65881;52.438;16.744;2023-06-04T10:53:20;4.60;;;1.67;;
76935;SDS011;65881;52.438;16.744;2023-06-04T10:55:47;6.68;;;2.03;;
76935;SDS011;65881;52.438;16.744;2023-06-04T10:58:13;3.20;;;1.75;;
76935;SDS011;65881;52.438;16.744;2023-06-04T11:00:41;2.92;;;1.73;;
76935;SDS011;65881;52.438;16.744;2023-06-04T11:03:12;4.30;;;1.80;;
76935;SDS011;65881;52.438;16.744;2023-06-04T11:05:43;4.22;;;2.20;;
76935;SDS011;65881;52.438;16.744;2023-06-04T11:08:13;4.18;;;1.77;;
76935;SDS011;65881;52.438;16.744;2023-06-04T11:11:15;3.65;;;1.98;;
76935;SDS011;65881;52.438;16.744;2023-06-04T11:13:47;3.40;;;1.80;;
76935;SDS011;65881;52.438;16.744;2023-06-04T11:18:57;5.28;;;1.83;;
76935;SDS011;65881;52.438;16.744;2023-06-04T11:21:28;3.00;;;1.63;;
76935;SDS011;65881;52.438;16.744;2023-06-04T11:23:55;3.55;;;2.30;;
76935;SDS011;65881;52.438;16.744;2023-06-04T11:26:33;7.53;;;2.00;;
76935;SDS011;65881;52.438;16.744;2023-06-04T11:29:00;4.40;;;1.90;;
76935;SDS011;65881;52.438;16.744;2023-06-04T11:31:26;2.08;;;1.50;;
76935;SDS011;65881;52.438;16.744;2023-06-04T11:33:52;2.75;;;1.80;;
76935;SDS011;65881;52.438;16.744;2023-06-04T11:36:27;3.50;;;2.00;;
76935;SDS011;65881;52.438;16.744;2023-06-04T11:38:55;3.03;;;1.60;;
76935;SDS011;65881;52.438;16.744;2023-06-04T11:41:31;3.90;;;1.83;;
76935;SDS011;65881;52.438;16.744;2023-06-04T11:44:08;3.03;;;1.80;;
76935;SDS011;65881;52.438;16.744;2023-06-04T11:46:43;5.30;;;1.50;;
76935;SDS011;65881;52.438;16.744;2023-06-04T11:49:16;2.22;;;1.40;;
76935;SDS011;65881;52.438;16.744;2023-06-04T11:51:49;2.40;;;1.70;;
76935;SDS011;65881;52.438;16.744;2023-06-04T11:54:16;3.92;;;1.80;;
76935;SDS011;65881;52.438;16.744;2023-06-04T11:56:52;2.95;;;1.60;;
76935;SDS011;65881;52.438;16.744;2023-06-04T11:59:21;2.58;;;1.77;;
76935;SDS011;65881;52.438;16.744;2023-06-04T12:01:47;2.83;;;1.75;;
76935;SDS011;65881;52.438;16.744;2023-06-04T12:04:14;3.40;;;2.00;;
76935;SDS011;65881;52.438;16.744;2023-06-04T12:06:54;3.05;;;1.48;;
76935;SDS011;65881;52.438;16.744;2023-06-04T12:09:23;3.45;;;2.03;;
76935;SDS011;65881;52.438;16.744;2023-06-04T12:11:57;4.57;;;1.90;;
76935;SDS011;65881;52.438;16.744;2023-06-04T12:14:26;2.50;;;1.63;;
76935;SDS011;65881;52.438;16.744;2023-06-04T12:17:05;2.10;;;1.70;;
76935;SDS011;65881;52.438;16.744;2023-06-04T12:19:32;2.63;;;1.65;;
76935;SDS011;65881;52.438;16.744;2023-06-04T12:21:59;3.83;;;1.83;;
76935;SDS011;65881;52.438;16.744;2023-06-04T12:24:35;3.20;;;1.73;;
76935;SDS011;65881;52.438;16.744;2023-06-04T12:27:12;3.45;;;1.80;;
76935;SDS011;65881;52.438;16.744;2023-06-04T12:29:38;2.45;;;1.80;;
76935;SDS011;65881;52.438;16.744;2023-06-04T12:32:05;2.30;;;1.60;;
76935;SDS011;65881;52.438;16.744;2023-06-04T12:34:39;3.45;;;2.10;;
76935;SDS011;65881;52.438;16.744;2023-06-04T12:37:05;4.32;;;1.88;;
76935;SDS011;65881;52.438;16.744;2023-06-04T12:39:40;3.42;;;1.75;;
76935;SDS011;65881;52.438;16.744;2023-06-04T12:42:06;2.30;;;1.70;;
76935;SDS011;65881;52.438;16.744;2023-06-04T12:44:37;4.93;;;1.63;;
76935;SDS011;65881;52.438;16.744;2023-06-04T12:47:04;2.40;;;1.58;;
76935;SDS011;65881;52.438;16.744;2023-06-04T12:49:30;3.67;;;1.63;;
76935;SDS011;65881;52.438;16.744;2023-06-04T12:51:55;2.65;;;1.60;;
76935;SDS011;65881;52.438;16.744;2023-06-04T12:54:21;3.65;;;1.90;;
76935;SDS011;65881;52.438;16.744;2023-06-04T12:56:50;2.83;;;1.80;;
76935;SDS011;65881;52.438;16.744;2023-06-04T12:59:16;2.75;;;1.92;;
76935;SDS011;65881;52.438;16.744;2023-06-04T13:01:42;3.75;;;2.60;;
76935;SDS011;65881;52.438;16.744;2023-06-04T13:04:07;4.97;;;2.30;;
76935;SDS011;65881;52.438;16.744;2023-06-04T13:06:35;2.08;;;1.80;;
76935;SDS011;65881;52.438;16.744;2023-06-04T13:09:03;2.65;;;1.70;;
76935;SDS011;65881;52.438;16.744;2023-06-04T13:11:43;6.53;;;2.20;;
76935;SDS011;65881;52.438;16.744;2023-06-04T13:14:11;2.80;;;1.95;;
76935;SDS011;65881;52.438;16.744;2023-06-04T13:16:38;3.35;;;1.90;;
76935;SDS011;65881;52.438;16.744;2023-06-04T13:19:04;2.72;;;1.85;;
76935;SDS011;65881;52.438;16.744;2023-06-04T13:21:30;2.58;;;1.75;;
76935;SDS011;65881;52.438;16.744;2023-06-04T13:23:56;2.78;;;1.75;;
76935;SDS011;65881;52.438;16.744;2023-06-04T13:26:22;4.93;;;1.98;;
76935;SDS011;65881;52.438;16.744;2023-06-04T13:28:48;4.05;;;1.80;;
76935;SDS011;65881;52.438;16.744;2023-06-04T13:31:15;10.10;;;1.90;;
76935;SDS011;65881;52.438;16.744;2023-06-04T13:33:41;4.53;;;1.80;;
76935;SDS011;65881;52.438;16.744;2023-06-04T13:36:11;3.55;;;1.60;;
76935;SDS011;65881;52.438;16.744;2023-06-04T13:38:37;2.22;;;1.80;;
76935;SDS011;65881;52.438;16.744;2023-06-04T13:41:03;4.00;;;2.15;;
76935;SDS011;65881;52.438;16.744;2023-06-04T13:43:28;2.53;;;1.80;;
76935;SDS011;65881;52.438;16.744;2023-06-04T13:46:00;2.35;;;1.60;;
76935;SDS011;65881;52.438;16.744;2023-06-04T13:48:28;2.00;;;1.50;;
76935;SDS011;65881;52.438;16.744;2023-06-04T13:50:53;3.15;;;1.77;;
76935;SDS011;65881;52.438;16.744;2023-06-04T13:53:19;5.18;;;1.77;;
76935;SDS011;65881;52.438;16.744;2023-06-04T13:55:45;2.45;;;1.67;;
76935;SDS011;65881;52.438;16.744;2023-06-04T13:58:14;2.90;;;1.63;;
76935;SDS011;65881;52.438;16.744;2023-06-04T14:00:40;1.60;;;1.50;;
76935;SDS011;65881;52.438;16.744;2023-06-04T14:03:06;3.13;;;1.52;;
76935;SDS011;65881;52.438;16.744;2023-06-04T14:05:31;4.05;;;2.10;;
76935;SDS011;65881;52.438;16.744;2023-06-04T14:07:57;3.80;;;1.90;;
76935;SDS011;65881;52.438;16.744;2023-06-04T14:10:23;2.00;;;1.75;;
76935;SDS011;65881;52.438;16.744;2023-06-04T14:12:48;2.83;;;1.90;;
76935;SDS011;65881;52.438;16.744;2023-06-04T14:15:25;5.30;;;2.17;;
76935;SDS011;65881;52.438;16.744;2023-06-04T14:20:16;3.38;;;1.60;;
76935;SDS011;65881;52.438;16.744;2023-06-04T14:22:42;2.50;;;1.80;;
76935;SDS011;65881;52.438;16.744;2023-06-04T14:25:08;2.67;;;1.77;;
76935;SDS011;65881;52.438;16.744;2023-06-04T14:27:34;2.83;;;1.80;;
76935;SDS011;65881;52.438;16.744;2023-06-04T14:30:01;3.25;;;2.38;;
76935;SDS011;65881;52.438;16.744;2023-06-04T14:32:29;3.50;;;2.38;;
76935;SDS011;65881;52.438;16.744;2023-06-04T14:34:57;3.40;;;1.85;;
76935;SDS011;65881;52.438;16.744;2023-06-04T14:37:22;3.45;;;1.90;;
76935;SDS011;65881;52.438;16.744;2023-06-04T14:39:48;2.92;;;1.90;;
76935;SDS011;65881;52.438;16.744;2023-06-04T14:42:14;6.18;;;1.90;;
76935;SDS011;65881;52.438;16.744;2023-06-04T14:44:40;2.63;;;1.65;;
76935;SDS011;65881;52.438;16.744;2023-06-04T14:47:06;2.80;;;1.90;;
76935;SDS011;65881;52.438;16.744;2023-06-04T14:49:32;2.72;;;1.90;;
76935;SDS011;65881;52.438;16.744;2023-06-04T14:51:57;3.28;;;1.60;;
76935;SDS011;65881;52.438;16.744;2023-06-04T14:54:23;2.63;;;1.77;;
76935;SDS011;65881;52.438;16.744;2023-06-04T14:56:49;2.35;;;1.70;;
76935;SDS011;65881;52.438;16.744;2023-06-04T14:59:14;2.20;;;1.70;;
76935;SDS011;65881;52.438;16.744;2023-06-04T15:01:41;3.08;;;1.80;;
76935;SDS011;65881;52.438;16.744;2023-06-04T15:04:07;3.53;;;2.05;;